createdAt,value
2022-12-16T00:01:13.447Z,15.90
2022-12-16T00:03:41.065Z,16.47
2022-12-16T00:06:09.007Z,17.03
2022-12-16T00:08:37.821Z,16.30
2022-12-16T00:11:04.748Z,17.33
2022-12-16T00:13:32.353Z,16.10
2022-12-16T00:15:59.093Z,16.73
2022-12-16T00:18:25.775Z,17.53
2022-12-16T00:20:54.789Z,16.07
2022-12-16T00:23:22.557Z,15.47
2022-12-16T00:25:49.735Z,15.60
2022-12-16T00:28:18.747Z,16.17
2022-12-16T00:30:45.499Z,16.60
2022-12-16T00:33:13.009Z,16.63
2022-12-16T00:35:42.993Z,16.43
2022-12-16T00:38:12.831Z,17.17
2022-12-16T00:40:39.313Z,15.77
2022-12-16T00:43:05.789Z,15.87
2022-12-16T00:45:32.248Z,16.23
2022-12-16T00:47:58.993Z,15.07
2022-12-16T00:50:25.632Z,15.87
2022-12-16T00:52:52.064Z,15.23
2022-12-16T00:55:19.035Z,16.20
2022-12-16T00:57:45.621Z,16.03
2022-12-16T01:00:13.843Z,16.80
2022-12-16T01:02:41.278Z,14.20
2022-12-16T01:05:08.853Z,15.57
2022-12-16T01:07:35.510Z,15.60
2022-12-16T01:10:02.017Z,17.03
2022-12-16T01:12:28.496Z,14.53
2022-12-16T01:14:54.946Z,15.60
2022-12-16T01:17:21.369Z,15.83
2022-12-16T01:19:47.804Z,15.50
2022-12-16T01:22:14.299Z,14.83
2022-12-16T01:24:40.739Z,15.53
2022-12-16T01:27:07.160Z,16.63
2022-12-16T01:29:34.787Z,15.57
2022-12-16T01:32:01.276Z,15.30
2022-12-16T01:34:27.881Z,15.23
2022-12-16T01:36:54.313Z,14.87
2022-12-16T01:39:22.036Z,15.07
2022-12-16T01:41:48.466Z,16.13
2022-12-16T01:44:21.419Z,15.57
2022-12-16T01:46:54.120Z,15.77
2022-12-16T01:49:26.086Z,14.90
2022-12-16T01:51:55.442Z,15.13
2022-12-16T01:54:25.235Z,15.93
2022-12-16T01:56:55.412Z,14.63
2022-12-16T01:59:22.719Z,15.37
2022-12-16T02:01:49.248Z,14.83
2022-12-16T02:04:15.779Z,16.43
2022-12-16T02:06:42.197Z,15.27
2022-12-16T02:09:10.873Z,14.50
2022-12-16T02:12:04.825Z,14.17
2022-12-16T02:14:54.459Z,14.70
2022-12-16T02:17:45.715Z,14.23
2022-12-16T02:20:22.521Z,13.97
2022-12-16T02:23:26.590Z,15.23
2022-12-16T02:26:09.730Z,15.43
2022-12-16T02:29:07.746Z,13.83
2022-12-16T02:31:53.944Z,14.70
2022-12-16T02:34:29.251Z,14.47
2022-12-16T02:37:28.149Z,15.33
2022-12-16T02:40:03.664Z,14.50
2022-12-16T02:42:47.764Z,14.57
2022-12-16T02:45:19.931Z,13.60
2022-12-16T02:47:46.606Z,15.17
2022-12-16T02:50:27.559Z,14.87
2022-12-16T02:52:54.970Z,14.13
2022-12-16T02:55:25.641Z,14.50
2022-12-16T02:58:12.839Z,15.00
2022-12-16T03:00:48.170Z,14.73
2022-12-16T03:03:20.860Z,14.93
2022-12-16T03:05:48.623Z,13.23
2022-12-16T03:08:20.433Z,14.77
2022-12-16T03:10:54.609Z,14.20
2022-12-16T03:13:22.680Z,14.13
2022-12-16T03:15:52.044Z,13.83
2022-12-16T03:18:19.018Z,14.17
2022-12-16T03:20:59.570Z,15.00
2022-12-16T03:23:31.653Z,14.53
2022-12-16T03:26:04.691Z,14.93
2022-12-16T03:28:49.618Z,13.63
2022-12-16T03:31:23.915Z,15.17
2022-12-16T03:34:07.331Z,14.17
2022-12-16T03:36:35.093Z,15.07
2022-12-16T03:39:03.642Z,14.00
2022-12-16T03:41:31.376Z,15.67
2022-12-16T03:43:57.842Z,14.30
2022-12-16T03:46:24.363Z,13.47
2022-12-16T03:48:51.931Z,13.07
2022-12-16T03:51:19.597Z,14.33
2022-12-16T03:53:46.495Z,13.83
2022-12-16T03:56:13.462Z,13.03
2022-12-16T03:58:40.386Z,14.43
2022-12-16T04:01:09.431Z,14.13
2022-12-16T04:03:39.496Z,14.00
2022-12-16T04:06:06.546Z,15.63
2022-12-16T04:08:32.979Z,14.00
2022-12-16T04:11:17.924Z,13.97
2022-12-16T04:14:02.991Z,12.83
2022-12-16T04:16:48.549Z,13.27
2022-12-16T04:19:45.194Z,12.67
2022-12-16T04:22:45.591Z,14.27
2022-12-16T04:25:23.598Z,12.87
2022-12-16T04:27:50.121Z,13.73
2022-12-16T04:30:21.940Z,14.93
2022-12-16T04:33:17.276Z,12.63
2022-12-16T04:36:02.285Z,12.77
2022-12-16T04:38:47.833Z,13.93
2022-12-16T04:41:32.833Z,14.77
2022-12-16T04:44:18.096Z,13.80
2022-12-16T04:47:03.269Z,13.97
2022-12-16T04:49:48.215Z,13.67
2022-12-16T04:52:33.171Z,13.40
2022-12-16T04:55:18.311Z,12.93
2022-12-16T04:58:07.351Z,13.60
2022-12-16T05:00:52.368Z,14.13
2022-12-16T05:03:37.210Z,13.57
2022-12-16T05:06:22.333Z,13.50
2022-12-16T05:09:07.414Z,14.03
2022-12-16T05:11:52.278Z,13.43
2022-12-16T05:14:37.308Z,13.40
2022-12-16T05:17:22.309Z,12.17
2022-12-16T05:20:07.407Z,12.93
2022-12-16T05:22:52.478Z,13.63
2022-12-16T05:25:37.568Z,14.20
2022-12-16T05:28:22.640Z,13.03
2022-12-16T05:31:07.700Z,13.33
2022-12-16T05:33:52.712Z,13.40
2022-12-16T05:36:37.661Z,13.20
2022-12-16T05:39:22.733Z,12.50
2022-12-16T05:42:07.648Z,12.63
2022-12-16T05:44:52.637Z,13.17
2022-12-16T05:47:38.124Z,13.30
2022-12-16T05:50:24.281Z,13.40
2022-12-16T05:53:11.382Z,13.10
2022-12-16T05:55:56.439Z,13.23
2022-12-16T05:58:41.633Z,13.00
2022-12-16T06:01:26.682Z,14.77
2022-12-16T06:04:17.111Z,14.33
2022-12-16T06:07:02.630Z,13.50
2022-12-16T06:09:53.156Z,12.80
2022-12-16T06:12:41.214Z,13.13
2022-12-16T06:15:26.303Z,14.10
2022-12-16T06:18:11.408Z,13.97
2022-12-16T06:20:56.272Z,13.77
2022-12-16T06:23:41.365Z,13.63
2022-12-16T06:26:26.825Z,13.73
2022-12-16T06:29:11.955Z,13.27
2022-12-16T06:31:57.139Z,14.03
2022-12-16T06:34:42.326Z,14.13
2022-12-16T06:37:27.438Z,14.47
2022-12-16T06:40:12.077Z,14.40
2022-12-16T06:43:00.576Z,14.37
2022-12-16T06:45:45.695Z,13.43
2022-12-16T06:48:30.924Z,14.00
2022-12-16T06:51:16.097Z,13.93
2022-12-16T06:54:01.096Z,15.57
2022-12-16T06:56:53.415Z,13.00
2022-12-16T06:59:38.436Z,14.17
2022-12-16T07:02:23.693Z,14.53
2022-12-16T07:05:08.821Z,13.70
2022-12-16T07:07:53.903Z,15.43
2022-12-16T07:10:38.964Z,14.73
2022-12-16T07:13:23.987Z,14.07
2022-12-16T07:16:09.024Z,14.53
2022-12-16T07:18:54.063Z,15.33
2022-12-16T07:21:39.034Z,13.77
2022-12-16T07:24:23.949Z,14.70
2022-12-16T07:27:08.903Z,13.50
2022-12-16T07:29:53.966Z,15.47
2022-12-16T07:32:39.032Z,14.20
2022-12-16T07:35:23.943Z,14.30
2022-12-16T07:38:09.031Z,15.30
2022-12-16T07:40:54.052Z,14.80
2022-12-16T07:43:40.407Z,15.83
2022-12-16T07:46:25.561Z,14.83
2022-12-16T07:49:10.686Z,14.80
2022-12-16T07:51:55.885Z,15.53
2022-12-16T07:54:40.894Z,16.13
2022-12-16T07:57:26.098Z,15.77
2022-12-16T08:00:11.198Z,15.33
2022-12-16T08:02:56.316Z,16.27
2022-12-16T08:05:41.451Z,16.80
2022-12-16T08:08:26.432Z,15.90
2022-12-16T08:11:11.434Z,17.97
2022-12-16T08:13:56.369Z,17.90
2022-12-16T08:16:42.030Z,19.23
2022-12-16T08:19:27.007Z,18.47
2022-12-16T08:22:12.184Z,18.60
2022-12-16T08:24:57.373Z,19.23
2022-12-16T08:27:42.412Z,19.47
2022-12-16T08:30:28.178Z,19.93
2022-12-16T08:33:18.726Z,21.00
2022-12-16T08:36:04.702Z,20.60
2022-12-16T08:38:49.797Z,18.13
2022-12-16T08:41:34.846Z,19.30
2022-12-16T08:44:19.918Z,18.37
2022-12-16T08:47:05.002Z,18.07
2022-12-16T08:49:51.103Z,19.03
2022-12-16T08:52:38.486Z,17.17
2022-12-16T08:55:27.785Z,18.13
2022-12-16T08:58:14.685Z,19.37
2022-12-16T09:01:06.260Z,20.50
2022-12-16T09:03:52.473Z,20.73
2022-12-16T09:06:40.663Z,19.93
2022-12-16T09:09:26.667Z,18.13
2022-12-16T09:12:11.816Z,19.60
2022-12-16T09:15:12.264Z,19.40
2022-12-16T09:17:57.256Z,20.53
2022-12-16T09:20:42.380Z,18.73
2022-12-16T09:23:27.328Z,19.00
2022-12-16T09:26:12.780Z,21.20
2022-12-16T09:28:57.843Z,19.53
2022-12-16T09:31:43.032Z,21.17
2022-12-16T09:34:28.050Z,20.23
2022-12-16T09:37:13.168Z,20.67
2022-12-16T09:39:58.221Z,19.83
2022-12-16T09:42:57.216Z,21.03
2022-12-16T09:45:52.281Z,20.33
2022-12-16T09:49:01.204Z,21.40
2022-12-16T09:51:47.796Z,20.43
2022-12-16T09:54:34.873Z,19.50
2022-12-16T09:57:21.007Z,20.40
2022-12-16T10:00:13.526Z,21.60
2022-12-16T10:03:03.379Z,21.23
2022-12-16T10:06:35.672Z,21.70
2022-12-16T10:09:49.049Z,21.37
2022-12-16T10:13:04.221Z,20.20
2022-12-16T10:16:03.860Z,20.30
2022-12-16T10:18:59.652Z,19.70
2022-12-16T10:21:53.096Z,21.43
2022-12-16T10:25:24.790Z,19.97
2022-12-16T10:28:14.703Z,23.17
2022-12-16T10:30:59.884Z,23.43
2022-12-16T10:33:47.395Z,23.70
2022-12-16T10:36:40.042Z,21.33
2022-12-16T10:40:03.522Z,22.03
2022-12-16T10:42:50.656Z,21.17
2022-12-16T10:45:48.836Z,21.30
2022-12-16T10:48:36.930Z,22.70
2022-12-16T10:51:30.547Z,21.87
2022-12-16T10:54:24.609Z,21.07
2022-12-16T10:57:24.848Z,21.73
2022-12-16T11:00:09.969Z,21.53
2022-12-16T11:02:55.207Z,22.00
2022-12-16T11:05:41.505Z,21.23
2022-12-16T11:08:41.958Z,22.13
2022-12-16T11:11:32.436Z,23.80
2022-12-16T11:14:38.514Z,21.53
2022-12-16T11:17:38.312Z,21.87
2022-12-16T11:20:42.148Z,20.23
2022-12-16T11:23:42.501Z,21.67
2022-12-16T11:26:36.760Z,21.07
2022-12-16T11:29:30.083Z,22.17
2022-12-16T11:32:16.614Z,21.77
2022-12-16T11:35:04.403Z,21.87
2022-12-16T11:37:50.889Z,20.10
2022-12-16T11:40:36.973Z,21.77
2022-12-16T11:43:23.215Z,21.60
2022-12-16T11:46:10.189Z,21.80
2022-12-16T11:49:02.817Z,21.40
2022-12-16T11:51:50.420Z,20.30
2022-12-16T11:54:41.859Z,21.90
2022-12-16T11:57:38.085Z,20.30
2022-12-16T12:00:24.159Z,19.80
2022-12-16T12:03:35.669Z,20.83
2022-12-16T12:06:31.688Z,18.73
2022-12-16T12:09:28.968Z,20.70
2022-12-16T12:12:21.621Z,21.37
2022-12-16T12:15:11.930Z,21.10
2022-12-16T12:18:09.332Z,20.73
2022-12-16T12:21:15.441Z,20.23
2022-12-16T12:24:28.543Z,21.67
2022-12-16T12:27:22.374Z,21.20
2022-12-16T12:30:19.636Z,22.00
2022-12-16T12:33:32.308Z,21.73
2022-12-16T12:36:53.661Z,21.93
2022-12-16T12:40:11.087Z,20.30
2022-12-16T12:43:04.741Z,20.73
2022-12-16T12:45:56.257Z,19.83
2022-12-16T12:48:47.522Z,20.37
2022-12-16T12:51:43.815Z,22.07
2022-12-16T12:55:03.342Z,20.10
2022-12-16T12:57:49.337Z,21.20
2022-12-16T13:00:37.914Z,21.27
2022-12-16T13:03:40.903Z,21.10
2022-12-16T13:06:25.888Z,21.10
2022-12-16T13:09:10.932Z,21.43
2022-12-16T13:11:57.354Z,22.47
2022-12-16T13:14:51.814Z,22.53
2022-12-16T13:17:39.390Z,21.63
2022-12-16T13:20:53.234Z,18.57
2022-12-16T13:23:51.262Z,21.63
2022-12-16T13:26:47.551Z,20.57
2022-12-16T13:29:48.402Z,20.47
2022-12-16T13:32:44.208Z,19.83
2022-12-16T13:35:29.253Z,20.00
2022-12-16T13:38:35.600Z,19.93
2022-12-16T13:41:27.964Z,19.00
2022-12-16T13:44:15.145Z,19.10
2022-12-16T13:47:08.296Z,19.80
2022-12-16T13:49:56.470Z,18.80
2022-12-16T13:52:59.825Z,19.37
2022-12-16T13:55:52.138Z,20.40
2022-12-16T13:58:44.796Z,18.57
2022-12-16T14:01:35.307Z,20.00
2022-12-16T14:04:20.359Z,22.30
2022-12-16T14:07:05.199Z,21.97
2022-12-16T14:09:58.252Z,20.53
2022-12-16T14:13:15.615Z,18.60
2022-12-16T14:16:37.687Z,18.83
2022-12-16T14:19:36.748Z,19.63
2022-12-16T14:22:37.095Z,20.67
2022-12-16T14:25:42.158Z,19.73
2022-12-16T14:28:50.794Z,27.90
2022-12-16T14:31:40.025Z,24.67
2022-12-16T14:34:35.197Z,24.00
2022-12-16T14:37:30.298Z,22.83
2022-12-16T14:40:15.330Z,22.83
2022-12-16T14:43:00.787Z,24.03
2022-12-16T14:45:57.884Z,22.13
2022-12-16T14:48:52.255Z,22.23
2022-12-16T14:51:44.444Z,20.17
2022-12-16T14:54:55.187Z,21.37
2022-12-16T14:57:45.846Z,21.73
2022-12-16T15:00:33.646Z,20.43
2022-12-16T15:03:37.557Z,21.13
2022-12-16T15:06:25.775Z,22.23
2022-12-16T15:09:22.072Z,21.97
2022-12-16T15:12:10.521Z,22.13
2022-12-16T15:14:57.586Z,23.57
2022-12-16T15:17:48.701Z,21.70
2022-12-16T15:20:45.529Z,22.20
2022-12-16T15:23:37.548Z,21.53
2022-12-16T15:26:24.614Z,24.63
2022-12-16T15:29:09.513Z,25.27
2022-12-16T15:32:02.963Z,23.87
2022-12-16T15:35:06.840Z,23.40
2022-12-16T15:38:04.263Z,24.17
2022-12-16T15:40:50.718Z,23.90
2022-12-16T15:43:40.160Z,25.67
2022-12-16T15:46:25.429Z,22.93
2022-12-16T15:49:10.445Z,22.93
2022-12-16T15:52:30.525Z,22.30
2022-12-16T15:55:15.625Z,23.63
2022-12-16T15:58:13.807Z,23.50
2022-12-16T16:00:58.943Z,21.67
2022-12-16T16:03:47.613Z,23.40
2022-12-16T16:06:36.613Z,24.77
2022-12-16T16:09:44.489Z,22.97
2022-12-16T16:12:30.581Z,24.63
2022-12-16T16:15:15.908Z,26.37
2022-12-16T16:18:01.491Z,24.27
2022-12-16T16:20:46.563Z,23.63
2022-12-16T16:23:32.500Z,22.50
2022-12-16T16:26:17.736Z,23.83
2022-12-16T16:29:02.823Z,22.70
2022-12-16T16:31:47.851Z,24.27
2022-12-16T16:34:32.982Z,22.63
2022-12-16T16:37:18.127Z,22.80
2022-12-16T16:40:03.285Z,22.60
2022-12-16T16:42:48.382Z,23.23
2022-12-16T16:45:33.973Z,22.17
2022-12-16T16:48:45.317Z,21.50
2022-12-16T16:51:30.303Z,23.03
2022-12-16T16:54:15.295Z,25.43
2022-12-16T16:57:00.274Z,25.13
2022-12-16T16:59:45.303Z,27.07
2022-12-16T17:02:40.822Z,29.50
2022-12-16T17:05:27.615Z,26.50
2022-12-16T17:08:12.732Z,26.00
2022-12-16T17:10:57.849Z,26.10
2022-12-16T17:13:42.808Z,25.87
2022-12-16T17:16:32.167Z,25.50
2022-12-16T17:19:17.161Z,23.97
2022-12-16T17:22:02.215Z,25.33
2022-12-16T17:24:51.423Z,25.00
2022-12-16T17:27:40.984Z,25.47
2022-12-16T17:30:32.660Z,23.67
2022-12-16T17:33:19.340Z,26.03
2022-12-16T17:36:07.289Z,25.17
2022-12-16T17:38:56.486Z,24.07
2022-12-16T17:41:41.553Z,26.10
2022-12-16T17:44:43.303Z,21.63
2022-12-16T17:47:28.536Z,23.43
2022-12-16T17:50:13.581Z,23.80
2022-12-16T17:52:58.539Z,24.93
2022-12-16T17:55:43.543Z,21.87
2022-12-16T17:58:30.853Z,22.47
2022-12-16T18:01:23.880Z,23.27
2022-12-16T18:04:09.600Z,25.63
2022-12-16T18:07:02.283Z,25.57
2022-12-16T18:09:47.283Z,26.17
2022-12-16T18:12:32.425Z,24.40
2022-12-16T18:15:17.448Z,26.50
2022-12-16T18:18:02.156Z,24.00
2022-12-16T18:20:47.299Z,25.27
2022-12-16T18:23:32.595Z,24.60
2022-12-16T18:26:19.853Z,23.20
2022-12-16T18:29:04.754Z,23.57
2022-12-16T18:31:50.002Z,22.50
2022-12-16T18:34:35.239Z,23.67
2022-12-16T18:37:20.211Z,22.47
2022-12-16T18:40:05.240Z,22.90
2022-12-16T18:42:50.197Z,23.83
2022-12-16T18:45:35.210Z,23.80
2022-12-16T18:48:20.156Z,22.00
2022-12-16T18:51:14.815Z,22.67
2022-12-16T18:53:59.784Z,22.67
2022-12-16T18:56:45.077Z,23.97
2022-12-16T18:59:30.146Z,22.87
2022-12-16T19:02:15.789Z,21.40
2022-12-16T19:05:01.030Z,21.80
2022-12-16T19:07:50.790Z,23.13
2022-12-16T19:10:35.735Z,22.47
2022-12-16T19:13:20.930Z,22.87
2022-12-16T19:16:16.427Z,21.93
2022-12-16T19:19:01.512Z,22.93
2022-12-16T19:21:51.806Z,22.00
2022-12-16T19:24:52.063Z,22.30
2022-12-16T19:27:37.211Z,22.63
2022-12-16T19:30:22.835Z,23.20
2022-12-16T19:36:15.167Z,23.20
2022-12-16T19:39:00.057Z,23.87
2022-12-16T19:41:45.228Z,23.40
2022-12-16T19:44:30.217Z,23.17
2022-12-16T19:47:15.349Z,23.40
2022-12-16T19:50:00.261Z,23.43
2022-12-16T19:52:45.176Z,23.77
2022-12-16T19:55:30.164Z,23.77
2022-12-16T19:58:15.390Z,23.83
2022-12-16T20:01:00.435Z,23.30
2022-12-16T20:03:46.090Z,22.97
2022-12-16T20:06:31.831Z,22.97
2022-12-16T20:09:16.888Z,22.93
2022-12-16T20:12:02.038Z,23.93
2022-12-16T20:14:46.972Z,23.20
2022-12-16T20:17:32.191Z,23.63
2022-12-16T20:20:17.285Z,23.57
2022-12-16T20:23:02.364Z,24.30
2022-12-16T20:25:47.464Z,23.77
2022-12-16T20:28:32.545Z,23.50
2022-12-16T20:31:21.614Z,23.83
2022-12-16T20:34:13.849Z,23.20
2022-12-16T20:36:58.921Z,24.43
2022-12-16T20:42:48.895Z,21.83
2022-12-16T20:45:34.472Z,22.60
2022-12-16T20:48:20.037Z,22.20
2022-12-16T20:51:17.622Z,22.37
2022-12-16T20:54:07.659Z,22.27
2022-12-16T20:56:52.720Z,24.23
2022-12-16T20:59:38.157Z,25.17
2022-12-16T21:02:25.908Z,23.30
2022-12-16T21:05:13.002Z,23.03
2022-12-16T21:07:58.160Z,22.00
2022-12-16T21:10:43.118Z,22.43
2022-12-16T21:13:30.816Z,23.57
2022-12-16T21:14:28.344Z,23.03
2022-12-16T21:16:17.029Z,23.47
2022-12-16T21:19:02.153Z,23.83
2022-12-16T21:21:47.734Z,24.60
2022-12-16T21:24:32.648Z,24.33
2022-12-16T21:27:17.711Z,27.03
2022-12-16T21:30:02.713Z,24.90
2022-12-16T21:32:47.774Z,24.43
2022-12-16T21:35:32.843Z,24.10
2022-12-16T21:38:18.052Z,24.97
2022-12-16T21:41:10.032Z,25.40
2022-12-16T21:43:55.112Z,26.17
2022-12-16T21:46:41.411Z,24.37
2022-12-16T21:49:26.404Z,24.60
2022-12-16T21:52:11.573Z,23.20
2022-12-16T21:54:56.647Z,22.07
2022-12-16T21:57:41.852Z,24.73
2022-12-16T22:00:27.269Z,22.90
2022-12-16T22:03:14.457Z,24.63
2022-12-16T22:05:59.483Z,23.63
2022-12-16T22:08:44.424Z,23.60
2022-12-16T22:11:30.629Z,23.23
2022-12-16T22:14:15.510Z,23.80
2022-12-16T22:17:00.687Z,23.83
2022-12-16T22:19:45.745Z,23.43
2022-12-16T22:22:30.893Z,23.90
2022-12-16T22:25:15.884Z,23.00
2022-12-16T22:28:00.939Z,20.60
2022-12-16T22:30:46.123Z,21.77
2022-12-16T22:33:31.290Z,22.10
2022-12-16T22:36:20.456Z,22.80
2022-12-16T22:36:21.216Z,23.63
2022-12-16T22:39:05.582Z,22.03
2022-12-16T22:42:04.229Z,21.47
2022-12-16T22:44:49.409Z,22.13
2022-12-16T22:47:34.591Z,22.20
2022-12-16T22:50:19.820Z,21.97
2022-12-16T22:53:04.700Z,21.43
2022-12-16T22:55:49.852Z,23.17
2022-12-16T22:58:35.431Z,23.17
2022-12-16T23:01:20.599Z,21.73
2022-12-16T23:04:05.776Z,22.63
2022-12-16T23:06:51.934Z,21.57
2022-12-16T23:09:37.129Z,22.33
2022-12-16T23:12:22.667Z,21.77
2022-12-16T23:15:07.886Z,24.10
2022-12-16T23:17:52.940Z,22.90
2022-12-16T23:20:51.924Z,23.50
2022-12-16T23:23:37.244Z,22.43
2022-12-16T23:26:22.994Z,23.20
2022-12-16T23:29:11.640Z,22.37
2022-12-16T23:31:57.657Z,23.00
2022-12-16T23:34:45.931Z,23.50
2022-12-16T23:37:31.408Z,22.77
2022-12-16T23:40:16.397Z,22.07
2022-12-16T23:43:01.252Z,22.63
2022-12-16T23:45:46.347Z,24.37
2022-12-16T23:48:31.392Z,21.90
2022-12-16T23:51:16.440Z,22.87
2022-12-16T23:54:01.483Z,23.63
2022-12-16T23:56:46.524Z,22.77
2022-12-16T23:59:31.603Z,22.03
